FDB3PM OMDB-OOMS
Flight info
| Callsign | FDB3PM |
|---|---|
| Flight time | 0h 49m |
| Altitude | 25000 |
| Route | ANVIX L223 TARDI N629 MUSUK T511 MCT |
| Aircraft | B38M/M-SDE1FGHILORVWXY/HB1 |
Departure
| Time | 2026-04-20 16:08 |
|---|---|
| Airport | Dubai International Airport (OMDB) |
Arrival
| Time | 2026-04-20 16:58 |
|---|---|
| Airport | Muscat International Airport (OOMS) |
| Time | Latitude | Longitude | Altitude | Speed | Heading |
|---|---|---|---|---|---|
| 2026-04-20 15:56 | 25.25775 | 55.37012 | 37 ft | 0 kts | 31° |
| 2026-04-20 15:57 | 25.25766 | 55.37006 | 37 ft | 2 kts | 31° |
| 2026-04-20 15:57 | 25.25755 | 55.36998 | 37 ft | 2 kts | 31° |
| 2026-04-20 15:57 | 25.25741 | 55.36989 | 37 ft | 2 kts | 31° |
| 2026-04-20 15:58 | 25.25729 | 55.36980 | 37 ft | 2 kts | 43° |
| 2026-04-20 15:58 | 25.25719 | 55.36967 | 37 ft | 2 kts | 62° |
| 2026-04-20 15:58 | 25.25714 | 55.36951 | 37 ft | 2 kts | 81° |
| 2026-04-20 15:58 | 25.25713 | 55.36935 | 37 ft | 2 kts | 98° |
| 2026-04-20 15:59 | 25.25717 | 55.36920 | 37 ft | 2 kts | 115° |
| 2026-04-20 15:59 | 25.25720 | 55.36914 | 37 ft | 1 kts | 124° |
| 2026-04-20 15:59 | 25.25722 | 55.36910 | 37 ft | 0 kts | 121° |
| 2026-04-20 16:03 | 25.25721 | 55.36912 | 37 ft | 1 kts | 121° |
| 2026-04-20 16:03 | 25.25707 | 55.36939 | 37 ft | 7 kts | 121° |
| 2026-04-20 16:03 | 25.25671 | 55.37004 | 37 ft | 12 kts | 121° |
| 2026-04-20 16:04 | 25.25614 | 55.37107 | 37 ft | 18 kts | 121° |
| 2026-04-20 16:04 | 25.25534 | 55.37250 | 37 ft | 24 kts | 121° |
| 2026-04-20 16:04 | 25.25436 | 55.37429 | 37 ft | 29 kts | 121° |
| 2026-04-20 16:04 | 25.25326 | 55.37625 | 37 ft | 30 kts | 120° |
| 2026-04-20 16:05 | 25.25221 | 55.37815 | 37 ft | 28 kts | 121° |
| 2026-04-20 16:05 | 25.25123 | 55.37992 | 37 ft | 23 kts | 122° |
| 2026-04-20 16:05 | 25.25068 | 55.38090 | 37 ft | 13 kts | 121° |
| 2026-04-20 16:05 | 25.25021 | 55.38176 | 37 ft | 12 kts | 121° |
| 2026-04-20 16:06 | 25.24970 | 55.38242 | 37 ft | 9 kts | 153° |
| 2026-04-20 16:06 | 25.24918 | 55.38231 | 37 ft | 7 kts | 212° |
| 2026-04-20 16:06 | 25.24878 | 55.38204 | 37 ft | 6 kts | 208° |
| 2026-04-20 16:06 | 25.24838 | 55.38180 | 37 ft | 6 kts | 210° |
| 2026-04-20 16:07 | 25.24805 | 55.38157 | 37 ft | 5 kts | 211° |
| 2026-04-20 16:07 | 25.24770 | 55.38131 | 37 ft | 6 kts | 227° |
| 2026-04-20 16:07 | 25.24774 | 55.38083 | 37 ft | 7 kts | 302° |
| 2026-04-20 16:07 | 25.24830 | 55.37983 | 37 ft | 37 kts | 301° |
| 2026-04-20 16:08 | 25.25092 | 55.37511 | 37 ft | 106 kts | 301° |
| 2026-04-20 16:08 | 25.25579 | 55.36629 | 72 ft | 158 kts | 304° |
| 2026-04-20 16:08 | 25.26154 | 55.35553 | 554 ft | 169 kts | 303° |
| 2026-04-20 16:08 | 25.26761 | 55.34439 | 1224 ft | 170 kts | 304° |
| 2026-04-20 16:09 | 25.27366 | 55.33340 | 1798 ft | 176 kts | 304° |
| 2026-04-20 16:09 | 25.28035 | 55.32132 | 2146 ft | 195 kts | 304° |
| 2026-04-20 16:09 | 25.28585 | 55.30731 | 2511 ft | 216 kts | 285° |
| 2026-04-20 16:09 | 25.28732 | 55.28976 | 3007 ft | 236 kts | 269° |
| 2026-04-20 16:10 | 25.28485 | 55.27163 | 3815 ft | 244 kts | 255° |
| 2026-04-20 16:10 | 25.27877 | 55.25369 | 4042 ft | 263 kts | 246° |
| 2026-04-20 16:10 | 25.27094 | 55.23493 | 4827 ft | 270 kts | 244° |
| 2026-04-20 16:10 | 25.26322 | 55.21683 | 6006 ft | 260 kts | 244° |
| 2026-04-20 16:11 | 25.25578 | 55.19939 | 7014 ft | 255 kts | 243° |
| 2026-04-20 16:11 | 25.24770 | 55.18180 | 7741 ft | 261 kts | 232° |
| 2026-04-20 16:11 | 25.23352 | 55.16955 | 8370 ft | 263 kts | 197° |
| 2026-04-20 16:11 | 25.22779 | 55.16763 | 8536 ft | 266 kts | 188° |
| 2026-04-20 16:12 | 25.19836 | 55.17689 | 9479 ft | 275 kts | 140° |
| 2026-04-20 16:12 | 25.18412 | 55.19089 | 10272 ft | 277 kts | 135° |
| 2026-04-20 16:12 | 25.17100 | 55.20629 | 11064 ft | 279 kts | 128° |
| 2026-04-20 16:12 | 25.16023 | 55.22391 | 11829 ft | 282 kts | 120° |
| 2026-04-20 16:13 | 25.15070 | 55.24297 | 12592 ft | 285 kts | 119° |
| 2026-04-20 16:13 | 25.14134 | 55.26233 | 13360 ft | 288 kts | 119° |
| 2026-04-20 16:13 | 25.13198 | 55.28178 | 14111 ft | 291 kts | 119° |
| 2026-04-20 16:13 | 25.12248 | 55.30153 | 14858 ft | 294 kts | 120° |
| 2026-04-20 16:14 | 25.11291 | 55.32139 | 15587 ft | 297 kts | 120° |
| 2026-04-20 16:14 | 25.10338 | 55.34166 | 16305 ft | 301 kts | 117° |
| 2026-04-20 16:14 | 25.09447 | 55.36274 | 17007 ft | 304 kts | 116° |
| 2026-04-20 16:14 | 25.08574 | 55.38392 | 17678 ft | 308 kts | 116° |
| 2026-04-20 16:15 | 25.07687 | 55.40548 | 18335 ft | 311 kts | 116° |
| 2026-04-20 16:15 | 25.06793 | 55.42738 | 18775 ft | 322 kts | 116° |
| 2026-04-20 16:15 | 25.05875 | 55.45095 | 18928 ft | 342 kts | 115° |
| 2026-04-20 16:15 | 25.04934 | 55.47544 | 19276 ft | 354 kts | 115° |
| 2026-04-20 16:16 | 25.03968 | 55.50065 | 19901 ft | 357 kts | 115° |
| 2026-04-20 16:16 | 25.02993 | 55.52608 | 20507 ft | 361 kts | 115° |
| 2026-04-20 16:16 | 25.02005 | 55.55179 | 21094 ft | 365 kts | 116° |
| 2026-04-20 16:16 | 25.00873 | 55.57684 | 21665 ft | 367 kts | 121° |
| 2026-04-20 16:17 | 24.99571 | 55.60112 | 22232 ft | 370 kts | 123° |
| 2026-04-20 16:17 | 24.98199 | 55.62549 | 22764 ft | 374 kts | 123° |
| 2026-04-20 16:17 | 24.96873 | 55.64964 | 23283 ft | 378 kts | 123° |
| 2026-04-20 16:17 | 24.95755 | 55.67018 | 23707 ft | 381 kts | 123° |
| 2026-04-20 16:18 | 24.94182 | 55.69877 | 24286 ft | 385 kts | 125° |
| 2026-04-20 16:18 | 24.92661 | 55.72328 | 24771 ft | 388 kts | 128° |
| 2026-04-20 16:18 | 24.91051 | 55.74719 | 24982 ft | 394 kts | 129° |
| 2026-04-20 16:18 | 24.89437 | 55.77107 | 25003 ft | 403 kts | 129° |
| 2026-04-20 16:19 | 24.88228 | 55.78915 | 25004 ft | 409 kts | 129° |
| 2026-04-20 16:19 | 24.86785 | 55.81079 | 25001 ft | 410 kts | 129° |
| 2026-04-20 16:19 | 24.84489 | 55.84531 | 25001 ft | 409 kts | 129° |
| 2026-04-20 16:19 | 24.82809 | 55.87040 | 25001 ft | 409 kts | 129° |
| 2026-04-20 16:20 | 24.81147 | 55.89491 | 25001 ft | 409 kts | 129° |
| 2026-04-20 16:20 | 24.79435 | 55.91975 | 25001 ft | 409 kts | 131° |
| 2026-04-20 16:20 | 24.77581 | 55.94381 | 25002 ft | 407 kts | 135° |
| 2026-04-20 16:20 | 24.75585 | 55.96621 | 25002 ft | 406 kts | 138° |
| 2026-04-20 16:21 | 24.73536 | 55.98708 | 25001 ft | 406 kts | 140° |
| 2026-04-20 16:21 | 24.71430 | 56.00826 | 25001 ft | 406 kts | 139° |
| 2026-04-20 16:21 | 24.69422 | 56.02876 | 25001 ft | 406 kts | 139° |
| 2026-04-20 16:21 | 24.67627 | 56.04715 | 25001 ft | 406 kts | 139° |
| 2026-04-20 16:22 | 24.65562 | 56.06836 | 25001 ft | 406 kts | 139° |
| 2026-04-20 16:22 | 24.63507 | 56.08947 | 25000 ft | 406 kts | 139° |
| 2026-04-20 16:22 | 24.61449 | 56.11062 | 25000 ft | 406 kts | 139° |
| 2026-04-20 16:22 | 24.59363 | 56.13204 | 25000 ft | 406 kts | 139° |
| 2026-04-20 16:23 | 24.57305 | 56.15327 | 25000 ft | 407 kts | 137° |
| 2026-04-20 16:23 | 24.55367 | 56.17540 | 25001 ft | 408 kts | 134° |
| 2026-04-20 16:23 | 24.53525 | 56.19895 | 25000 ft | 408 kts | 132° |
| 2026-04-20 16:23 | 24.51668 | 56.22305 | 25000 ft | 408 kts | 133° |
| 2026-04-20 16:24 | 24.49818 | 56.24675 | 25000 ft | 408 kts | 133° |
| 2026-04-20 16:24 | 24.47945 | 56.27068 | 24999 ft | 408 kts | 133° |
| 2026-04-20 16:24 | 24.46071 | 56.29459 | 24999 ft | 408 kts | 133° |
| 2026-04-20 16:24 | 24.44229 | 56.31806 | 24999 ft | 408 kts | 133° |
| 2026-04-20 16:25 | 24.42366 | 56.34180 | 24999 ft | 408 kts | 133° |
| 2026-04-20 16:25 | 24.40518 | 56.36532 | 24999 ft | 408 kts | 133° |
| 2026-04-20 16:25 | 24.38668 | 56.38886 | 24999 ft | 408 kts | 133° |
| 2026-04-20 16:25 | 24.36804 | 56.41256 | 24998 ft | 408 kts | 133° |
| 2026-04-20 16:26 | 24.34959 | 56.43599 | 24984 ft | 409 kts | 133° |
| 2026-04-20 16:26 | 24.33090 | 56.45972 | 24966 ft | 409 kts | 133° |
| 2026-04-20 16:26 | 24.31231 | 56.48331 | 24942 ft | 410 kts | 133° |
| 2026-04-20 16:26 | 24.29398 | 56.50729 | 24910 ft | 412 kts | 130° |
| 2026-04-20 16:27 | 24.27679 | 56.53252 | 24882 ft | 413 kts | 128° |
| 2026-04-20 16:27 | 24.26020 | 56.55793 | 24857 ft | 414 kts | 128° |
| 2026-04-20 16:27 | 24.24324 | 56.58365 | 24836 ft | 414 kts | 128° |
| 2026-04-20 16:27 | 24.22633 | 56.60922 | 24820 ft | 414 kts | 128° |
| 2026-04-20 16:28 | 24.20941 | 56.63476 | 24808 ft | 415 kts | 128° |
| 2026-04-20 16:28 | 24.19500 | 56.65651 | 24803 ft | 415 kts | 128° |
| 2026-04-20 16:28 | 24.17612 | 56.68498 | 24802 ft | 414 kts | 128° |
| 2026-04-20 16:28 | 24.15917 | 56.71049 | 24802 ft | 414 kts | 128° |
| 2026-04-20 16:29 | 24.14232 | 56.73585 | 24802 ft | 414 kts | 128° |
| 2026-04-20 16:29 | 24.12538 | 56.76132 | 24801 ft | 414 kts | 128° |
| 2026-04-20 16:29 | 24.10828 | 56.78702 | 24802 ft | 414 kts | 128° |
| 2026-04-20 16:29 | 24.09153 | 56.81218 | 24801 ft | 414 kts | 128° |
| 2026-04-20 16:30 | 24.07450 | 56.83774 | 24680 ft | 413 kts | 128° |
| 2026-04-20 16:30 | 24.05771 | 56.86295 | 24103 ft | 407 kts | 128° |
| 2026-04-20 16:30 | 24.04112 | 56.88782 | 23491 ft | 401 kts | 128° |
| 2026-04-20 16:30 | 24.02484 | 56.91223 | 22881 ft | 396 kts | 128° |
| 2026-04-20 16:31 | 24.00879 | 56.93624 | 22271 ft | 391 kts | 128° |
| 2026-04-20 16:31 | 23.99291 | 56.96001 | 21669 ft | 386 kts | 128° |
| 2026-04-20 16:31 | 23.97711 | 56.98362 | 21073 ft | 381 kts | 127° |
| 2026-04-20 16:31 | 23.96678 | 56.99905 | 20684 ft | 378 kts | 127° |
| 2026-04-20 16:32 | 23.94633 | 57.02960 | 19943 ft | 370 kts | 127° |
| 2026-04-20 16:32 | 23.93127 | 57.05207 | 19386 ft | 366 kts | 127° |
| 2026-04-20 16:32 | 23.91637 | 57.07429 | 18823 ft | 361 kts | 127° |
| 2026-04-20 16:32 | 23.90158 | 57.09634 | 18266 ft | 357 kts | 127° |
| 2026-04-20 16:33 | 23.88709 | 57.11794 | 17747 ft | 352 kts | 126° |
| 2026-04-20 16:33 | 23.87324 | 57.13858 | 17234 ft | 348 kts | 126° |
| 2026-04-20 16:33 | 23.85944 | 57.15913 | 16731 ft | 345 kts | 126° |
| 2026-04-20 16:33 | 23.84496 | 57.18069 | 16195 ft | 358 kts | 126° |
| 2026-04-20 16:34 | 23.83012 | 57.20277 | 15630 ft | 355 kts | 126° |
| 2026-04-20 16:34 | 23.81578 | 57.22410 | 15109 ft | 350 kts | 125° |
| 2026-04-20 16:34 | 23.80152 | 57.24530 | 14593 ft | 344 kts | 125° |
| 2026-04-20 16:34 | 23.78730 | 57.26642 | 14079 ft | 339 kts | 125° |
| 2026-04-20 16:35 | 23.77360 | 57.28677 | 13684 ft | 331 kts | 125° |
| 2026-04-20 16:35 | 23.75993 | 57.30707 | 13263 ft | 346 kts | 125° |
| 2026-04-20 16:35 | 23.74558 | 57.32839 | 12747 ft | 346 kts | 124° |
| 2026-04-20 16:35 | 23.73214 | 57.34999 | 12232 ft | 339 kts | 116° |
| 2026-04-20 16:36 | 23.72292 | 57.37338 | 11724 ft | 332 kts | 108° |
| 2026-04-20 16:36 | 23.71662 | 57.39731 | 11249 ft | 326 kts | 102° |
| 2026-04-20 16:36 | 23.71159 | 57.42109 | 10786 ft | 321 kts | 101° |
| 2026-04-20 16:36 | 23.70689 | 57.44445 | 10671 ft | 305 kts | 101° |
| 2026-04-20 16:37 | 23.70250 | 57.46647 | 10545 ft | 292 kts | 101° |
| 2026-04-20 16:37 | 23.69827 | 57.48780 | 10406 ft | 280 kts | 101° |
| 2026-04-20 16:37 | 23.69420 | 57.50838 | 10266 ft | 270 kts | 101° |
| 2026-04-20 16:37 | 23.69033 | 57.52788 | 10129 ft | 261 kts | 101° |
| 2026-04-20 16:38 | 23.68655 | 57.54700 | 9992 ft | 253 kts | 101° |
| 2026-04-20 16:38 | 23.68277 | 57.56615 | 9779 ft | 271 kts | 101° |
| 2026-04-20 16:38 | 23.67876 | 57.58651 | 9469 ft | 273 kts | 101° |
| 2026-04-20 16:38 | 23.67479 | 57.60659 | 9175 ft | 269 kts | 101° |
| 2026-04-20 16:39 | 23.67091 | 57.62624 | 8892 ft | 265 kts | 101° |
| 2026-04-20 16:39 | 23.66703 | 57.64587 | 8611 ft | 262 kts | 101° |
| 2026-04-20 16:39 | 23.66334 | 57.66450 | 8348 ft | 259 kts | 101° |
| 2026-04-20 16:39 | 23.65954 | 57.68366 | 8077 ft | 256 kts | 101° |
| 2026-04-20 16:40 | 23.65580 | 57.70249 | 7816 ft | 253 kts | 101° |
| 2026-04-20 16:40 | 23.65209 | 57.72119 | 7564 ft | 250 kts | 101° |
| 2026-04-20 16:40 | 23.64846 | 57.73947 | 7316 ft | 247 kts | 101° |
| 2026-04-20 16:40 | 23.64478 | 57.75806 | 7085 ft | 260 kts | 101° |
| 2026-04-20 16:41 | 23.64094 | 57.77748 | 6807 ft | 261 kts | 101° |
| 2026-04-20 16:41 | 23.63712 | 57.79668 | 6541 ft | 258 kts | 101° |
| 2026-04-20 16:41 | 23.63333 | 57.81573 | 6282 ft | 254 kts | 101° |
| 2026-04-20 16:41 | 23.62960 | 57.83449 | 6027 ft | 251 kts | 101° |
| 2026-04-20 16:42 | 23.62592 | 57.85297 | 5790 ft | 247 kts | 101° |
| 2026-04-20 16:42 | 23.62232 | 57.87103 | 5561 ft | 244 kts | 101° |
| 2026-04-20 16:42 | 23.61873 | 57.88902 | 5335 ft | 243 kts | 101° |
| 2026-04-20 16:42 | 23.61502 | 57.90776 | 5105 ft | 259 kts | 101° |
| 2026-04-20 16:43 | 23.61120 | 57.92692 | 4858 ft | 254 kts | 101° |
| 2026-04-20 16:43 | 23.60744 | 57.94574 | 4617 ft | 250 kts | 101° |
| 2026-04-20 16:43 | 23.60378 | 57.96405 | 4385 ft | 246 kts | 101° |
| 2026-04-20 16:43 | 23.60017 | 57.98210 | 4156 ft | 242 kts | 101° |
| 2026-04-20 16:44 | 23.59662 | 57.99987 | 3931 ft | 239 kts | 101° |
| 2026-04-20 16:44 | 23.59324 | 58.01743 | 3705 ft | 237 kts | 99° |
| 2026-04-20 16:44 | 23.59117 | 58.03623 | 3506 ft | 254 kts | 93° |
| 2026-04-20 16:44 | 23.59090 | 58.05513 | 3394 ft | 243 kts | 89° |
| 2026-04-20 16:45 | 23.59151 | 58.07299 | 3373 ft | 231 kts | 86° |
| 2026-04-20 16:45 | 23.59255 | 58.09057 | 3102 ft | 231 kts | 85° |
| 2026-04-20 16:45 | 23.59381 | 58.10785 | 2815 ft | 227 kts | 85° |
| 2026-04-20 16:45 | 23.59514 | 58.12472 | 2500 ft | 225 kts | 85° |
| 2026-04-20 16:46 | 23.59651 | 58.14179 | 2187 ft | 222 kts | 85° |
| 2026-04-20 16:46 | 23.59784 | 58.15817 | 1890 ft | 214 kts | 85° |
| 2026-04-20 16:46 | 23.59909 | 58.17360 | 1609 ft | 197 kts | 85° |
| 2026-04-20 16:46 | 23.60026 | 58.18811 | 1337 ft | 183 kts | 85° |
| 2026-04-20 16:47 | 23.60133 | 58.20143 | 1636 ft | 174 kts | 85° |
| 2026-04-20 16:47 | 23.60235 | 58.21460 | 2177 ft | 179 kts | 85° |
| 2026-04-20 16:47 | 23.60346 | 58.22772 | 2752 ft | 173 kts | 85° |
| 2026-04-20 16:47 | 23.60447 | 58.24153 | 2904 ft | 200 kts | 85° |
| 2026-04-20 16:48 | 23.60550 | 58.25668 | 2907 ft | 205 kts | 86° |
| 2026-04-20 16:48 | 23.60752 | 58.27172 | 2877 ft | 206 kts | 65° |
| 2026-04-20 16:48 | 23.61745 | 58.28354 | 3085 ft | 222 kts | 29° |
| 2026-04-20 16:48 | 23.63230 | 58.28678 | 3863 ft | 224 kts | 357° |
| 2026-04-20 16:49 | 23.64695 | 58.28176 | 4550 ft | 229 kts | 329° |
| 2026-04-20 16:49 | 23.65763 | 58.26890 | 5163 ft | 241 kts | 296° |
| 2026-04-20 16:49 | 23.66112 | 58.25102 | 5932 ft | 247 kts | 272° |
| 2026-04-20 16:49 | 23.66070 | 58.23199 | 5976 ft | 245 kts | 266° |
| 2026-04-20 16:50 | 23.65946 | 58.21353 | 5990 ft | 241 kts | 265° |
| 2026-04-20 16:50 | 23.65817 | 58.19527 | 5992 ft | 241 kts | 265° |
| 2026-04-20 16:50 | 23.65688 | 58.17723 | 5988 ft | 238 kts | 265° |
| 2026-04-20 16:50 | 23.65562 | 58.15950 | 5746 ft | 231 kts | 265° |
| 2026-04-20 16:51 | 23.65435 | 58.14173 | 5183 ft | 235 kts | 265° |
| 2026-04-20 16:51 | 23.65310 | 58.12421 | 4694 ft | 234 kts | 265° |
| 2026-04-20 16:51 | 23.65183 | 58.10650 | 4220 ft | 233 kts | 265° |
| 2026-04-20 16:51 | 23.65056 | 58.08888 | 3753 ft | 231 kts | 265° |
| 2026-04-20 16:52 | 23.64932 | 58.07172 | 3299 ft | 229 kts | 265° |
| 2026-04-20 16:52 | 23.64807 | 58.05452 | 2844 ft | 227 kts | 264° |
| 2026-04-20 16:52 | 23.64297 | 58.03838 | 2348 ft | 225 kts | 233° |
| 2026-04-20 16:52 | 23.63107 | 58.02844 | 2023 ft | 216 kts | 196° |
| 2026-04-20 16:53 | 23.61631 | 58.02787 | 2003 ft | 215 kts | 162° |
| 2026-04-20 16:53 | 23.60395 | 58.03627 | 2006 ft | 212 kts | 131° |
| 2026-04-20 16:53 | 23.59501 | 58.04916 | 1992 ft | 212 kts | 122° |
| 2026-04-20 16:53 | 23.59043 | 58.06350 | 1981 ft | 192 kts | 93° |
| 2026-04-20 16:54 | 23.59083 | 58.07775 | 1990 ft | 185 kts | 84° |
| 2026-04-20 16:54 | 23.59216 | 58.09165 | 1995 ft | 184 kts | 84° |
| 2026-04-20 16:54 | 23.59345 | 58.10536 | 1993 ft | 183 kts | 84° |
| 2026-04-20 16:54 | 23.59459 | 58.11854 | 1994 ft | 171 kts | 84° |
| 2026-04-20 16:55 | 23.59567 | 58.13155 | 1992 ft | 171 kts | 84° |
| 2026-04-20 16:55 | 23.59668 | 58.14388 | 1954 ft | 154 kts | 84° |
| 2026-04-20 16:55 | 23.59757 | 58.15483 | 1899 ft | 145 kts | 84° |
| 2026-04-20 16:55 | 23.59849 | 58.16628 | 1741 ft | 152 kts | 84° |
| 2026-04-20 16:56 | 23.59880 | 58.17001 | 1673 ft | 151 kts | 84° |
| 2026-04-20 16:56 | 23.60034 | 58.18906 | 1332 ft | 151 kts | 84° |
| 2026-04-20 16:56 | 23.60126 | 58.20050 | 1126 ft | 151 kts | 84° |
| 2026-04-20 16:56 | 23.60218 | 58.21156 | 905 ft | 152 kts | 84° |
| 2026-04-20 16:57 | 23.60317 | 58.22296 | 713 ft | 149 kts | 84° |
| 2026-04-20 16:57 | 23.60412 | 58.23420 | 521 ft | 149 kts | 85° |
| 2026-04-20 16:57 | 23.60494 | 58.24553 | 320 ft | 149 kts | 85° |
| 2026-04-20 16:57 | 23.60581 | 58.25693 | 116 ft | 149 kts | 84° |
| 2026-04-20 16:58 | 23.60673 | 58.26784 | 57 ft | 135 kts | 85° |
| 2026-04-20 16:58 | 23.60737 | 58.27586 | 52 ft | 69 kts | 86° |
| 2026-04-20 16:58 | 23.60766 | 58.27941 | 52 ft | 27 kts | 84° |
| 2026-04-20 16:58 | 23.60780 | 58.28117 | 52 ft | 22 kts | 84° |
| 2026-04-20 16:59 | 23.60778 | 58.28263 | 52 ft | 19 kts | 100° |
| 2026-04-20 16:59 | 23.60773 | 58.28293 | 52 ft | 18 kts | 102° |
| 2026-04-20 16:59 | 23.60741 | 58.28402 | 52 ft | 9 kts | 112° |
| 2026-04-20 16:59 | 23.60718 | 58.28463 | 52 ft | 8 kts | 117° |
| 2026-04-20 17:00 | 23.60622 | 58.28440 | 52 ft | 11 kts | 228° |
| 2026-04-20 17:00 | 23.60564 | 58.28433 | 52 ft | 12 kts | 178° |
| 2026-04-20 17:00 | 23.60479 | 58.28440 | 52 ft | 11 kts | 175° |
| 2026-04-20 17:01 | 23.60406 | 58.28447 | 52 ft | 9 kts | 174° |
| 2026-04-20 17:01 | 23.60347 | 58.28457 | 52 ft | 7 kts | 147° |
| 2026-04-20 17:01 | 23.60338 | 58.28490 | 52 ft | 4 kts | 92° |
| 2026-04-20 17:01 | 23.60339 | 58.28524 | 52 ft | 5 kts | 83° |
| 2026-04-20 17:02 | 23.60342 | 58.28562 | 52 ft | 4 kts | 85° |
| 2026-04-20 17:02 | 23.60343 | 58.28575 | 52 ft | 0 kts | 85° |